Time;durP1;ratioP1;P1;durP2;ratioP2;P2;SDS_P1;SDS_P2;PMS_P1;PMS_P2;Temp;Humidity;BMP_temperature;BMP_pressure;BME280_temperature;BME280_humidity;BME280_pressure;Samples;Min_cycle;Max_cycle;Signal;HPM_P1;HPM_P2
2021/12/06 00:01:07;;;;;;;9.23;5.18;;;;;;;5.00;66.29;96485.91;4981431;28;20203;-79
2021/12/06 00:03:47;;;;;;;11.57;5.88;;;;;;;4.91;66.20;96480.31;4965768;28;20290;-79
2021/12/06 00:06:14;;;;;;;8.98;5.47;;;;;;;5.05;66.43;96491.16;4934007;28;20250;-79
2021/12/06 00:08:40;;;;;;;12.95;5.65;;;;;;;5.07;66.81;96492.53;4966354;28;20198;-79
2021/12/06 00:11:10;;;;;;;8.55;5.43;;;;;;;5.01;66.54;96503.75;4946571;28;20201;-79
2021/12/06 00:13:38;;;;;;;6.85;4.60;;;;;;;4.93;66.77;96506.66;4933518;28;20812;-79
2021/12/06 00:16:08;;;;;;;9.07;4.78;;;;;;;4.95;66.89;96509.00;4944097;28;20277;-79
2021/12/06 00:18:35;;;;;;;6.95;3.75;;;;;;;4.98;66.70;96509.34;4945686;28;20641;-79
2021/12/06 00:21:02;;;;;;;4.40;2.75;;;;;;;5.05;66.53;96501.50;4970976;28;20687;-79
2021/12/06 00:23:27;;;;;;;3.95;2.60;;;;;;;5.11;66.47;96502.41;4965594;28;20653;-79
2021/12/06 00:25:53;;;;;;;3.60;1.90;;;;;;;5.14;66.71;96502.75;4981988;28;20164;-79
2021/12/06 00:28:19;;;;;;;4.00;2.28;;;;;;;5.14;66.52;96499.34;4955638;28;20261;-79
2021/12/06 00:30:44;;;;;;;2.90;2.00;;;;;;;5.13;67.01;96500.38;4938495;28;20363;-79
2021/12/06 00:33:10;;;;;;;3.38;2.00;;;;;;;5.14;66.99;96501.94;4949494;28;20141;-79
2021/12/06 00:35:35;;;;;;;5.80;3.60;;;;;;;5.17;67.12;96506.66;4969101;28;20249;-79
2021/12/06 00:38:01;;;;;;;4.45;2.83;;;;;;;5.17;66.63;96506.66;4961595;28;20592;-79
2021/12/06 00:40:31;;;;;;;4.40;2.50;;;;;;;5.01;66.97;96513.28;4941449;28;20321;-79
2021/12/06 00:42:56;;;;;;;4.70;2.38;;;;;;;5.07;67.15;96515.75;4970114;28;20305;-79
2021/12/06 00:45:22;;;;;;;4.45;2.08;;;;;;;5.13;66.74;96521.03;4978598;28;20769;-79
2021/12/06 00:47:47;;;;;;;3.50;2.45;;;;;;;5.09;66.76;96517.31;4952742;28;20286;-79
2021/12/06 00:50:15;;;;;;;3.25;2.22;;;;;;;5.11;66.64;96526.41;4937503;28;20621;-79
2021/12/06 00:52:40;;;;;;;4.60;2.22;;;;;;;5.10;67.17;96531.78;4958314;28;20298;-79
2021/12/06 00:55:06;;;;;;;3.35;2.30;;;;;;;5.09;66.58;96530.22;4952409;28;20775;-79
2021/12/06 00:57:32;;;;;;;3.10;2.10;;;;;;;5.10;66.89;96540.31;4933646;28;20223;-79
2021/12/06 00:59:57;;;;;;;3.95;2.08;;;;;;;5.03;66.91;96537.84;4968787;28;20276;-79
2021/12/06 01:02:23;;;;;;;2.30;1.75;;;;;;;5.11;66.58;96538.53;4951798;28;20670;-79
2021/12/06 01:04:49;;;;;;;3.75;2.20;;;;;;;5.25;66.62;96542.44;4952415;28;20203;-79
2021/12/06 01:07:16;;;;;;;2.75;1.42;;;;;;;5.29;66.21;96540.19;4947039;28;20233;-79
2021/12/06 01:09:41;;;;;;;2.45;1.33;;;;;;;5.24;66.24;96548.59;4951298;28;20210;-79
2021/12/06 01:12:08;;;;;;;3.60;2.35;;;;;;;5.14;66.37;96556.94;4954747;28;20210;-79
2021/12/06 01:14:33;;;;;;;2.35;1.60;;;;;;;5.20;67.02;96560.41;4988206;28;20447;-79
2021/12/06 01:16:59;;;;;;;3.22;1.92;;;;;;;5.18;67.16;96560.63;4943430;28;20362;-79
2021/12/06 01:19:28;;;;;;;3.15;1.73;;;;;;;5.21;66.78;96561.97;4932642;28;20469;-79
2021/12/06 01:24:46;;;;;;;3.83;2.25;;;;;;;5.08;65.96;96575.88;4958948;28;20334;-79
2021/12/06 01:27:36;;;;;;;3.70;2.20;;;;;;;5.10;66.27;96578.25;4917254;28;20286;-79
2021/12/06 01:40:04;;;;;;;3.00;1.90;;;;;;;5.07;66.12;96595.75;4984031;28;20214;-79
2021/12/06 01:42:30;;;;;;;4.72;2.20;;;;;;;5.06;66.57;96591.56;4929581;28;20295;-79
2021/12/06 01:44:57;;;;;;;5.43;2.75;;;;;;;4.97;66.22;96590.34;4915683;28;20169;-79
2021/12/06 01:47:29;;;;;;;4.25;3.10;;;;;;;4.91;66.38;96601.53;4949168;28;20179;-79
2021/12/06 01:50:08;;;;;;;8.02;3.47;;;;;;;4.81;67.37;96602.06;4967998;28;20188;-79
2021/12/06 01:52:38;;;;;;;9.38;4.15;;;;;;;4.96;66.47;96604.25;4967489;28;20203;-79
2021/12/06 01:55:06;;;;;;;5.93;3.50;;;;;;;5.00;66.80;96596.84;4951176;28;20264;-79
2021/12/06 01:57:35;;;;;;;7.72;3.75;;;;;;;4.98;66.69;96598.88;4950405;28;20235;-79
2021/12/06 02:00:07;;;;;;;7.75;3.75;;;;;;;5.04;66.85;96600.56;4960540;28;20203;-79
2021/12/06 02:02:32;;;;;;;7.82;3.28;;;;;;;5.07;66.99;96595.75;4969930;28;20159;-79
2021/12/06 02:04:58;;;;;;;40.85;5.05;;;;;;;5.02;66.53;96603.38;4967525;28;20273;-79
2021/12/06 02:07:25;;;;;;;7.57;3.03;;;;;;;5.00;66.11;96610.53;4939093;28;20243;-79
2021/12/06 02:09:51;;;;;;;14.85;3.63;;;;;;;4.98;66.58;96612.53;4946955;28;20192;-79
2021/12/06 02:12:18;;;;;;;7.07;3.15;;;;;;;5.04;66.45;96621.97;4941308;28;20215;-79
2021/12/06 02:15:02;;;;;;;4.70;2.88;;;;;;;5.13;66.42;96614.69;4914095;28;20278;-79
2021/12/06 02:17:35;;;;;;;7.20;3.05;;;;;;;5.14;65.24;96611.13;4950033;28;20212;-79
2021/12/06 02:20:09;;;;;;;6.43;2.63;;;;;;;4.95;65.68;96609.63;4945181;28;20224;-79
2021/12/06 02:22:37;;;;;;;9.77;3.05;;;;;;;4.98;65.56;96616.91;4967452;28;20643;-79
2021/12/06 02:25:04;;;;;;;39.72;4.65;;;;;;;4.84;65.43;96618.91;4939584;28;20152;-79
2021/12/06 02:27:30;;;;;;;11.85;3.47;;;;;;;4.77;65.90;96620.81;4937050;28;20257;-79
2021/12/06 02:29:59;;;;;;;21.65;4.07;;;;;;;4.61;66.66;96624.78;4947363;28;20229;-79
2021/12/06 02:32:26;;;;;;;13.07;3.38;;;;;;;4.68;66.69;96628.84;4950748;28;20679;-79
2021/12/06 02:34:54;;;;;;;11.00;3.72;;;;;;;4.64;66.70;96627.72;4947215;28;20191;-79
2021/12/06 02:37:27;;;;;;;8.63;3.15;;;;;;;4.61;66.67;96623.00;4953741;28;20134;-79
2021/12/06 02:39:53;;;;;;;8.68;2.92;;;;;;;4.73;66.34;96627.41;4956994;28;20192;-79
2021/12/06 02:42:20;;;;;;;8.05;3.13;;;;;;;4.69;67.10;96639.94;4955830;28;20333;-79
2021/12/06 02:44:47;;;;;;;8.68;2.78;;;;;;;4.67;66.26;96637.59;4944029;28;20184;-79
2021/12/06 02:47:13;;;;;;;8.55;3.08;;;;;;;4.68;66.67;96639.16;4961149;28;20188;-79
2021/12/06 02:49:38;;;;;;;4.25;2.67;;;;;;;4.68;66.85;96644.31;4950746;28;20179;-79
2021/12/06 02:52:05;;;;;;;11.60;3.15;;;;;;;4.62;66.57;96640.03;4965495;28;20289;-79
2021/12/06 02:54:30;;;;;;;5.43;2.92;;;;;;;4.68;66.73;96639.16;4965206;28;20289;-79
2021/12/06 02:59:39;;;;;;;7.60;2.38;;;;;;;4.61;66.51;96637.66;4968837;28;20275;-79
2021/12/06 03:02:07;;;;;;;4.65;2.35;;;;;;;4.61;66.64;96640.25;4954796;28;20653;-79
2021/12/06 03:04:33;;;;;;;7.95;3.03;;;;;;;4.67;66.56;96647.13;4950269;28;20342;-79
2021/12/06 03:06:59;;;;;;;14.82;3.78;;;;;;;4.67;67.38;96647.91;4962960;28;20272;-79
2021/12/06 03:09:37;;;;;;;11.23;2.95;;;;;;;4.50;66.57;96655.47;4966964;28;20176;-79
2021/12/06 03:12:09;;;;;;;15.90;2.70;;;;;;;4.53;67.28;96656.03;4941005;28;20703;-79
2021/12/06 03:14:38;;;;;;;9.98;2.00;;;;;;;4.56;66.80;96661.56;4969710;28;20272;-79
2021/12/06 03:17:06;;;;;;;22.80;2.30;;;;;;;4.58;66.82;96666.50;4986407;28;20750;-79
2021/12/06 03:19:35;;;;;;;13.18;2.53;;;;;;;4.60;67.01;96656.75;4970664;28;20184;-79
2021/12/06 03:22:01;;;;;;;7.93;2.08;;;;;;;4.62;66.73;96659.88;4953344;28;20197;-79
2021/12/06 03:24:26;;;;;;;5.22;1.73;;;;;;;4.40;68.01;96675.81;4935726;28;20701;-79
2021/12/06 03:26:53;;;;;;;7.65;2.92;;;;;;;4.61;66.86;96679.72;4946564;28;20188;-79
2021/12/06 03:29:19;;;;;;;6.28;1.77;;;;;;;4.65;67.23;96677.50;4931017;28;20203;-79
2021/12/06 03:31:47;;;;;;;13.25;2.47;;;;;;;4.66;67.19;96691.94;4942145;28;20187;-79
2021/12/06 03:34:12;;;;;;;13.60;2.50;;;;;;;4.65;67.21;96696.31;4949992;28;20203;-79
2021/12/06 03:36:39;;;;;;;7.50;1.33;;;;;;;4.62;67.45;96701.91;4947476;28;20158;-80
2021/12/06 03:39:20;;;;;;;3.72;1.25;;;;;;;4.58;67.18;96711.09;4945437;28;20654;-79
2021/12/06 03:41:48;;;;;;;4.43;1.30;;;;;;;4.63;66.32;96711.25;4915390;28;20269;-80
2021/12/06 03:44:13;;;;;;;5.32;1.42;;;;;;;4.69;66.26;96717.31;4943579;28;20275;-80
2021/12/06 03:46:40;;;;;;;6.07;1.63;;;;;;;4.59;66.98;96709.31;4966447;28;20195;-80
2021/12/06 03:49:13;;;;;;;4.78;1.30;;;;;;;4.44;66.76;96713.06;4950552;28;20161;-79
2021/12/06 03:51:40;;;;;;;3.55;1.50;;;;;;;4.64;67.03;96706.84;4966459;28;20177;-79
2021/12/06 03:54:06;;;;;;;3.72;1.63;;;;;;;4.62;66.80;96709.66;4951090;28;20633;-79
2021/12/06 03:56:31;;;;;;;2.53;1.33;;;;;;;4.62;66.75;96714.03;4950521;28;20206;-79
2021/12/06 03:58:57;;;;;;;3.47;1.52;;;;;;;4.57;66.14;96714.66;4969134;28;20182;-80
2021/12/06 04:01:22;;;;;;;13.65;2.13;;;;;;;4.48;67.57;96716.75;4950317;28;20618;-80
2021/12/06 04:03:48;;;;;;;6.78;1.90;;;;;;;4.52;67.51;96722.28;4967383;28;20289;-79
2021/12/06 04:06:14;;;;;;;4.80;1.48;;;;;;;4.57;66.66;96719.06;4947117;28;20219;-80
2021/12/06 04:08:40;;;;;;;3.10;1.35;;;;;;;4.58;66.93;96724.00;4948759;28;20712;-79
2021/12/06 04:11:08;;;;;;;6.18;1.55;;;;;;;4.52;67.07;96729.22;4950791;28;20203;-80
2021/12/06 04:13:34;;;;;;;7.35;1.65;;;;;;;4.59;67.02;96738.47;4918829;28;20184;-80
2021/12/06 04:16:00;;;;;;;6.85;1.50;;;;;;;4.60;67.30;96734.88;4954521;28;20211;-79
2021/12/06 04:18:25;;;;;;;4.50;1.92;;;;;;;4.64;66.79;96738.59;4937629;28;20209;-80
2021/12/06 04:20:51;;;;;;;5.35;2.10;;;;;;;4.61;66.75;96744.19;4951201;28;20673;-79
2021/12/06 04:23:16;;;;;;;3.50;1.90;;;;;;;4.64;66.86;96746.34;4950809;28;20278;-80
2021/12/06 04:25:42;;;;;;;3.92;2.03;;;;;;;4.66;67.24;96744.31;4934202;28;20169;-80
2021/12/06 04:28:09;;;;;;;3.97;1.73;;;;;;;4.69;66.61;96746.47;4951183;28;20279;-80
2021/12/06 04:30:38;;;;;;;3.75;1.67;;;;;;;4.69;67.04;96753.41;4949656;28;20252;-80
2021/12/06 04:33:05;;;;;;;3.35;1.35;;;;;;;4.73;66.49;96748.59;4966434;28;20298;-79
2021/12/06 04:35:31;;;;;;;3.50;1.90;;;;;;;4.81;66.04;96761.97;4934527;28;20191;-79
2021/12/06 04:37:57;;;;;;;5.97;2.28;;;;;;;4.79;66.31;96765.81;4969964;28;20220;-80
2021/12/06 04:40:23;;;;;;;4.13;2.25;;;;;;;4.74;66.14;96757.94;4986866;28;20626;-79
2021/12/06 04:42:48;;;;;;;4.43;2.33;;;;;;;4.81;66.36;96767.16;4979687;28;20247;-80
2021/12/06 04:45:14;;;;;;;4.13;1.95;;;;;;;4.85;66.36;96770.88;4969981;28;20265;-80
2021/12/06 04:47:40;;;;;;;4.25;1.77;;;;;;;4.80;66.69;96770.75;4970164;28;20258;-79
2021/12/06 04:50:07;;;;;;;4.28;1.50;;;;;;;4.73;66.71;96771.81;4953678;28;20191;-79
2021/12/06 04:52:34;;;;;;;5.00;2.20;;;;;;;4.75;66.86;96773.19;4969824;28;20210;-79
2021/12/06 04:55:00;;;;;;;6.93;2.17;;;;;;;4.76;67.21;96771.38;4955753;28;20288;-80
2021/12/06 04:57:30;;;;;;;8.43;3.13;;;;;;;4.74;66.73;96769.03;4937002;28;20270;-79
2021/12/06 05:00:12;;;;;;;3.58;1.60;;;;;;;4.71;66.86;96777.19;4970137;28;20218;-79
2021/12/06 05:02:39;;;;;;;3.10;1.42;;;;;;;4.81;66.98;96781.84;4949748;28;20209;-79
2021/12/06 05:05:36;;;;;;;3.40;1.83;;;;;;;4.66;66.60;96782.19;4983468;28;20185;-79
2021/12/06 05:08:11;;;;;;;3.63;1.90;;;;;;;4.80;66.97;96785.44;4934218;28;20701;-79
2021/12/06 05:10:37;;;;;;;5.03;1.85;;;;;;;4.77;67.33;96781.50;4933328;28;20191;-80
2021/12/06 05:13:02;;;;;;;4.55;2.20;;;;;;;4.66;68.29;96788.16;4943617;28;20207;-79
2021/12/06 05:15:28;;;;;;;5.40;1.60;;;;;;;4.67;68.16;96787.16;4923868;28;20282;-79
2021/12/06 05:17:53;;;;;;;8.02;2.72;;;;;;;4.58;67.36;96798.75;4996633;28;20215;-80
2021/12/06 05:20:19;;;;;;;4.30;1.65;;;;;;;4.58;68.22;96803.13;4950642;28;20083;-79
2021/12/06 05:22:45;;;;;;;29.23;4.05;;;;;;;4.46;67.68;96806.41;4933427;28;20289;-79
2021/12/06 05:25:11;;;;;;;4.07;1.70;;;;;;;4.59;67.92;96808.09;4969486;28;20307;-79
2021/12/06 05:27:37;;;;;;;4.50;1.70;;;;;;;4.60;67.28;96811.44;4955398;28;20161;-80
2021/12/06 05:30:05;;;;;;;4.80;1.80;;;;;;;4.50;67.95;96815.28;4965025;28;20408;-79
2021/12/06 05:32:33;;;;;;;12.52;1.63;;;;;;;4.55;67.69;96817.22;4981342;28;20194;-79
2021/12/06 05:35:06;;;;;;;3.80;1.00;;;;;;;4.49;67.71;96810.38;4977113;28;20307;-79
2021/12/06 05:37:34;;;;;;;13.63;1.27;;;;;;;4.49;67.59;96815.53;4970872;28;20636;-79
2021/12/06 05:39:59;;;;;;;5.28;1.88;;;;;;;4.44;68.27;96812.81;4978491;28;20530;-79
2021/12/06 05:42:26;;;;;;;2.42;1.35;;;;;;;4.51;68.07;96821.25;4951756;28;20173;-80
2021/12/06 05:44:52;;;;;;;4.88;1.20;;;;;;;4.50;68.59;96822.25;4959582;28;20172;-79
2021/12/06 05:47:17;;;;;;;5.50;1.30;;;;;;;4.45;68.22;96825.44;4936779;28;20621;-80
2021/12/06 05:49:43;;;;;;;3.47;1.20;;;;;;;4.43;67.88;96829.25;4935963;28;20276;-79
2021/12/06 05:52:09;;;;;;;7.15;1.75;;;;;;;4.44;67.94;96836.78;4952269;28;20699;-79
2021/12/06 05:54:36;;;;;;;3.40;1.20;;;;;;;4.47;67.96;96848.44;4968918;28;20330;-79
2021/12/06 05:57:03;;;;;;;7.45;1.30;;;;;;;4.45;68.36;96845.28;4968875;28;20215;-79
2021/12/06 05:59:28;;;;;;;6.75;1.92;;;;;;;4.47;67.95;96856.19;4968876;28;20718;-79
2021/12/06 06:01:54;;;;;;;3.17;1.10;;;;;;;4.46;68.62;96864.94;4966777;28;20240;-79
2021/12/06 06:04:20;;;;;;;4.20;1.40;;;;;;;4.45;68.12;96871.06;4958370;28;20263;-79
2021/12/06 06:06:46;;;;;;;3.90;1.30;;;;;;;4.50;68.29;96866.06;4956296;28;20288;-79
2021/12/06 06:09:12;;;;;;;4.18;1.35;;;;;;;4.52;68.27;96871.78;4938356;28;20170;-79
2021/12/06 06:11:37;;;;;;;3.08;1.52;;;;;;;4.49;68.31;96872.25;4931682;28;20591;-79
2021/12/06 06:14:04;;;;;;;4.05;2.15;;;;;;;4.53;68.64;96878.53;4968037;28;20356;-79
2021/12/06 06:16:35;;;;;;;15.60;2.05;;;;;;;4.48;68.38;96886.13;4970872;28;20243;-79
2021/12/06 06:19:00;;;;;;;8.45;1.77;;;;;;;4.52;67.96;96895.00;4971675;28;20244;-79
2021/12/06 06:21:26;;;;;;;3.28;1.10;;;;;;;4.52;68.29;96895.00;4940677;28;20199;-79
2021/12/06 06:23:51;;;;;;;2.72;1.50;;;;;;;4.58;68.58;96895.97;4966015;28;20228;-79
2021/12/06 06:26:17;;;;;;;3.35;1.70;;;;;;;4.60;68.05;96910.19;4932281;28;20249;-79
2021/12/06 06:28:43;;;;;;;6.07;1.90;;;;;;;4.56;68.18;96903.09;4931289;28;20200;-79
2021/12/06 06:31:11;;;;;;;3.28;1.70;;;;;;;4.46;68.32;96908.75;4967712;28;20209;-79
2021/12/06 06:33:37;;;;;;;3.25;1.83;;;;;;;4.55;68.54;96917.78;4968271;28;20711;-79
2021/12/06 06:36:03;;;;;;;2.83;1.45;;;;;;;4.58;68.05;96921.75;4951592;28;20281;-79
2021/12/06 06:38:28;;;;;;;3.45;1.33;;;;;;;4.66;68.41;96924.84;4980912;28;20262;-79
2021/12/06 06:40:54;;;;;;;4.90;1.60;;;;;;;4.66;68.59;96921.44;4968615;28;20418;-79
2021/12/06 06:43:19;;;;;;;2.45;1.67;;;;;;;4.61;68.31;96926.47;4971385;28;20375;-79
2021/12/06 06:45:45;;;;;;;3.72;1.65;;;;;;;4.59;68.37;96926.69;4971730;28;20250;-79
2021/12/06 06:48:11;;;;;;;5.40;1.40;;;;;;;4.60;67.90;96930.84;4987385;28;20674;-79
2021/12/06 06:50:37;;;;;;;2.85;1.52;;;;;;;4.60;68.61;96927.47;4951701;28;20276;-79
2021/12/06 06:53:08;;;;;;;4.00;1.90;;;;;;;4.61;68.87;96937.56;5024640;27;1354906;-81
2021/12/06 06:55:33;;;;;;;3.28;1.65;;;;;;;4.60;68.35;96941.16;5008341;28;20211;-81
2021/12/06 06:57:59;;;;;;;2.83;1.35;;;;;;;4.60;68.19;96945.53;5013979;28;20369;-81
2021/12/06 07:00:27;;;;;;;3.63;1.40;;;;;;;4.54;68.58;96951.50;5020939;28;20231;-81
2021/12/06 07:02:52;;;;;;;4.30;1.40;;;;;;;4.65;68.82;96954.19;5002557;28;20665;-81
2021/12/06 07:05:18;;;;;;;2.17;1.52;;;;;;;4.64;67.81;96944.09;5019929;28;20205;-81
2021/12/06 07:07:44;;;;;;;3.90;1.70;;;;;;;4.66;68.47;96948.03;5007443;28;20234;-81
2021/12/06 07:10:12;;;;;;;4.05;1.50;;;;;;;4.63;67.72;96940.72;5017368;28;20149;-81
2021/12/06 07:12:45;;;;;;;4.07;2.00;;;;;;;4.67;68.30;96951.41;5020883;28;20185;-81
2021/12/06 07:15:13;;;;;;;2.88;1.35;;;;;;;4.63;68.37;96956.19;5020965;28;20258;-81
2021/12/06 07:17:40;;;;;;;3.63;1.35;;;;;;;4.67;67.97;96949.59;5022577;28;20142;-81
2021/12/06 07:20:06;;;;;;;2.78;1.40;;;;;;;4.68;67.95;96958.94;5008201;28;20212;-81
2021/12/06 07:22:32;;;;;;;3.28;1.83;;;;;;;4.74;68.09;96967.59;5020342;28;20165;-79
2021/12/06 07:24:57;;;;;;;3.47;1.58;;;;;;;4.79;68.04;96972.13;5039986;28;20188;-79
2021/12/06 07:27:23;;;;;;;3.50;1.70;;;;;;;4.78;68.03;96978.28;5041010;28;20200;-79
2021/12/06 07:29:48;;;;;;;3.25;1.00;;;;;;;4.71;68.57;96980.13;5023933;28;20330;-79
2021/12/06 07:32:13;;;;;;;3.58;1.33;;;;;;;4.72;68.02;96979.16;5035889;28;20277;-79
2021/12/06 07:34:39;;;;;;;3.67;1.52;;;;;;;4.73;68.62;96981.53;5023464;28;20602;-79
2021/12/06 07:37:05;;;;;;;5.45;1.50;;;;;;;4.73;67.92;96980.72;5001492;28;20158;-79
2021/12/06 07:39:30;;;;;;;3.20;1.55;;;;;;;4.72;68.23;96976.56;4980527;28;20180;-79
2021/12/06 07:41:56;;;;;;;3.00;1.55;;;;;;;4.73;68.35;96986.69;4998931;28;20181;-79
2021/12/06 07:44:22;;;;;;;4.32;2.05;;;;;;;4.76;68.26;96985.44;4983659;28;20060;-78
2021/12/06 07:46:50;;;;;;;3.53;1.40;;;;;;;4.76;68.06;96995.78;5003112;28;20341;-79
2021/12/06 07:49:15;;;;;;;2.97;1.30;;;;;;;4.75;68.24;96991.63;4982986;28;20194;-79
2021/12/06 07:51:41;;;;;;;3.63;1.55;;;;;;;4.75;68.38;97000.16;5015123;28;20143;-79
2021/12/06 07:54:06;;;;;;;4.50;1.55;;;;;;;4.78;68.28;96994.56;4996380;28;20689;-79
2021/12/06 07:56:32;;;;;;;5.45;2.65;;;;;;;4.80;68.18;97002.09;5017403;28;20245;-79
2021/12/06 07:58:57;;;;;;;4.85;1.70;;;;;;;4.79;68.14;96995.34;4997517;28;20147;-79
2021/12/06 08:01:23;;;;;;;4.70;2.35;;;;;;;4.81;68.04;97003.66;5019140;28;20576;-79
2021/12/06 08:03:48;;;;;;;4.28;1.88;;;;;;;4.79;67.93;97006.44;4993555;28;20285;-79
2021/12/06 08:06:14;;;;;;;6.20;2.45;;;;;;;4.77;67.86;97002.53;4982904;28;20322;-78
2021/12/06 08:08:40;;;;;;;3.92;1.65;;;;;;;4.79;67.59;97010.81;5005694;28;20330;-79
2021/12/06 08:11:10;;;;;;;3.78;1.60;;;;;;;4.79;68.56;97016.00;4987291;28;20289;-79
2021/12/06 08:13:37;;;;;;;6.03;2.00;;;;;;;4.81;67.90;97012.19;5019330;28;20257;-79
2021/12/06 08:16:06;;;;;;;4.72;2.42;;;;;;;4.79;68.19;97016.00;5001601;28;20232;-79
2021/12/06 08:18:32;;;;;;;5.35;2.50;;;;;;;4.94;67.92;97013.09;4995305;28;20273;-79
2021/12/06 08:20:59;;;;;;;4.22;2.10;;;;;;;4.95;68.56;97018.03;4988372;28;20410;-78
2021/12/06 08:23:25;;;;;;;4.70;2.38;;;;;;;4.95;67.78;97023.22;4988873;28;20678;-80
2021/12/06 08:25:51;;;;;;;3.72;2.10;;;;;;;4.95;68.00;97019.81;4972734;28;20284;-79
2021/12/06 08:28:17;;;;;;;8.50;2.67;;;;;;;4.90;68.28;97022.25;4989262;28;20197;-78
2021/12/06 08:30:44;;;;;;;4.93;2.22;;;;;;;4.94;68.09;97023.41;5004772;28;20637;-78
2021/12/06 08:33:09;;;;;;;4.38;1.98;;;;;;;4.56;69.79;97027.66;4969947;28;20147;-78
2021/12/06 08:35:38;;;;;;;7.00;2.53;;;;;;;4.19;71.15;97022.34;4986049;28;20301;-79
2021/12/06 08:38:05;;;;;;;6.63;2.50;;;;;;;4.16;71.18;97017.59;5004584;28;20198;-78
2021/12/06 08:40:31;;;;;;;3.72;2.13;;;;;;;4.18;71.77;97020.78;4984196;28;20235;-78
2021/12/06 08:42:56;;;;;;;6.10;2.75;;;;;;;4.28;71.67;97021.09;5001401;28;20276;-78
2021/12/06 08:45:22;;;;;;;4.07;2.38;;;;;;;4.24;71.53;97014.00;5002289;28;20175;-78
2021/12/06 08:47:48;;;;;;;5.05;2.42;;;;;;;4.19;71.35;97011.25;4998742;28;20178;-78
2021/12/06 08:50:18;;;;;;;6.18;2.75;;;;;;;4.16;71.62;97012.44;5004094;28;20189;-78
2021/12/06 08:52:44;;;;;;;5.35;2.25;;;;;;;4.24;71.88;97012.19;4994866;28;20671;-78
2021/12/06 08:55:10;;;;;;;8.23;3.28;;;;;;;4.23;71.62;97010.63;4986322;28;20647;-78
2021/12/06 08:57:39;;;;;;;5.88;3.00;;;;;;;4.21;71.89;97006.66;4987309;28;20566;-78
2021/12/06 09:00:12;;;;;;;7.05;3.15;;;;;;;4.24;71.87;97019.94;5004241;28;20205;-78
2021/12/06 09:02:38;;;;;;;6.32;3.03;;;;;;;4.44;71.99;97016.44;5007609;28;20238;-78
2021/12/06 09:05:06;;;;;;;5.13;2.63;;;;;;;4.53;71.25;97022.13;4987842;28;20227;-78
2021/12/06 09:07:32;;;;;;;10.68;3.30;;;;;;;4.61;70.97;97020.09;4986615;28;20688;-78
2021/12/06 09:09:58;;;;;;;6.90;4.22;;;;;;;4.72;70.52;97025.56;4987801;28;20285;-78
2021/12/06 09:12:26;;;;;;;5.13;2.55;;;;;;;4.69;70.69;97027.56;4970860;28;20209;-78
2021/12/06 09:14:54;;;;;;;5.10;2.63;;;;;;;4.81;69.82;97032.03;4986325;28;20737;-78
2021/12/06 09:17:19;;;;;;;6.38;2.97;;;;;;;4.85;70.24;97030.63;4992900;28;20600;-78
2021/12/06 09:19:45;;;;;;;5.18;2.90;;;;;;;4.78;69.98;97035.84;4990215;28;20239;-77
2021/12/06 09:22:11;;;;;;;13.82;2.80;;;;;;;4.75;70.23;97035.47;4985619;28;20220;-78
2021/12/06 09:24:36;;;;;;;5.00;2.65;;;;;;;4.71;70.29;97044.63;4996775;28;20271;-77
2021/12/06 09:27:03;;;;;;;5.38;2.78;;;;;;;4.79;70.68;97039.19;4984979;28;20210;-78
2021/12/06 09:29:31;;;;;;;6.60;2.72;;;;;;;4.87;70.08;97023.47;4973705;28;20612;-77
2021/12/06 09:31:59;;;;;;;6.50;3.55;;;;;;;4.87;69.89;97032.00;4974666;28;20243;-77
2021/12/06 09:34:26;;;;;;;6.95;2.97;;;;;;;4.86;70.61;97037.34;4985546;28;20571;-77
2021/12/06 09:36:52;;;;;;;7.53;3.10;;;;;;;4.91;69.77;97037.50;4985902;28;20204;-77
2021/12/06 09:39:17;;;;;;;7.95;3.00;;;;;;;5.07;70.26;97034.41;4985994;28;20270;-77
2021/12/06 09:41:43;;;;;;;6.07;3.15;;;;;;;5.19;69.74;97033.69;4986026;28;20282;-77
2021/12/06 09:44:11;;;;;;;7.35;3.25;;;;;;;5.26;68.18;97047.34;4986274;28;20255;-78
2021/12/06 09:46:38;;;;;;;6.45;2.85;;;;;;;5.32;69.10;97040.53;4984124;28;20698;-78
2021/12/06 09:49:15;;;;;;;5.00;2.83;;;;;;;5.30;69.38;97042.56;4965417;28;20285;-78
2021/12/06 09:51:44;;;;;;;8.95;3.60;;;;;;;5.41;69.06;97047.78;4981173;28;20426;-78
2021/12/06 09:54:10;;;;;;;7.28;3.13;;;;;;;5.40;68.78;97048.78;4969051;28;20335;-78
2021/12/06 09:56:42;;;;;;;10.65;3.33;;;;;;;5.18;68.83;97045.81;5002655;28;20212;-77
2021/12/06 09:59:11;;;;;;;8.45;3.47;;;;;;;5.23;68.83;97042.59;5002687;28;20279;-78
2021/12/06 10:01:40;;;;;;;13.25;4.50;;;;;;;5.13;69.42;97039.72;4986784;28;20169;-78
2021/12/06 10:04:08;;;;;;;6.05;3.05;;;;;;;5.07;69.43;97034.41;4973786;28;20186;-78
2021/12/06 10:06:33;;;;;;;7.05;3.75;;;;;;;5.07;69.03;97043.91;4996105;28;20151;-78
2021/12/06 10:09:00;;;;;;;7.38;4.00;;;;;;;4.97;70.19;97039.25;4970020;28;20343;-78
2021/12/06 10:11:26;;;;;;;7.25;3.40;;;;;;;5.01;70.02;97045.56;4983812;28;20286;-77
2021/12/06 10:13:53;;;;;;;7.88;4.00;;;;;;;5.67;67.70;97040.75;4979712;28;20205;-78
2021/12/06 10:16:19;;;;;;;8.85;4.00;;;;;;;5.92;68.17;97037.31;4970208;28;20201;-78
2021/12/06 10:18:48;;;;;;;8.90;3.72;;;;;;;5.67;68.37;97043.34;5002029;28;20701;-77
2021/12/06 10:21:18;;;;;;;11.25;3.53;;;;;;;5.40;69.75;97035.88;4986253;28;20597;-78
2021/12/06 10:23:43;;;;;;;8.55;3.53;;;;;;;5.30;70.42;97037.38;5002325;28;20200;-78
2021/12/06 10:26:14;;;;;;;5.72;3.65;;;;;;;5.17;69.56;97033.91;5003644;28;20169;-78
2021/12/06 10:28:44;;;;;;;6.88;3.38;;;;;;;5.09;70.46;97041.94;5002600;28;20117;-78
2021/12/06 10:31:11;;;;;;;6.40;3.75;;;;;;;5.21;70.50;97039.47;5001375;28;20362;-78
2021/12/06 10:33:41;;;;;;;8.93;3.95;;;;;;;5.15;70.42;97035.91;4985137;28;20185;-78
2021/12/06 10:36:09;;;;;;;6.97;3.75;;;;;;;5.16;70.82;97037.50;5003737;28;20249;-78
2021/12/06 10:38:37;;;;;;;7.90;4.80;;;;;;;5.17;70.38;97030.53;4998960;28;20163;-78
2021/12/06 10:41:06;;;;;;;8.00;3.60;;;;;;;5.23;71.08;97032.28;4988631;28;20162;-77
2021/12/06 10:43:32;;;;;;;6.20;3.50;;;;;;;5.26;71.39;97029.28;5000231;28;20251;-76
2021/12/06 10:45:58;;;;;;;5.75;3.42;;;;;;;5.30;70.14;97027.84;4989167;28;20195;-78
2021/12/06 10:48:29;;;;;;;5.53;3.38;;;;;;;5.23;71.47;97022.75;5001356;28;20296;-78
2021/12/06 10:51:00;;;;;;;5.32;2.95;;;;;;;5.30;70.49;97020.09;4996991;28;20271;-77
2021/12/06 10:53:36;;;;;;;4.80;2.80;;;;;;;5.37;70.99;97014.88;4999905;28;20280;-77
2021/12/06 10:56:02;;;;;;;3.45;2.20;;;;;;;5.42;70.42;97009.84;4985088;28;20350;-78
2021/12/06 10:58:29;;;;;;;5.90;2.90;;;;;;;5.43;69.86;97012.22;4985788;28;20247;-78
2021/12/06 11:01:02;;;;;;;5.18;3.25;;;;;;;5.46;69.82;97010.22;4969297;28;20223;-78
2021/12/06 11:03:27;;;;;;;4.65;2.83;;;;;;;5.44;70.24;97013.78;5002967;28;20689;-77
2021/12/06 11:05:58;;;;;;;6.68;3.30;;;;;;;5.50;69.68;97016.50;4995748;28;20188;-77
2021/12/06 11:08:24;;;;;;;7.35;3.40;;;;;;;5.46;69.67;97015.38;4985222;28;20204;-78
2021/12/06 11:10:56;;;;;;;5.75;3.53;;;;;;;5.36;70.17;97010.69;4984340;28;20158;-78
2021/12/06 11:13:37;;;;;;;8.93;4.28;;;;;;;5.34;70.70;97016.06;4994887;28;20539;-78
2021/12/06 11:16:07;;;;;;;7.13;4.00;;;;;;;5.47;71.02;97022.91;5002760;28;20189;-78
2021/12/06 11:18:43;;;;;;;6.78;3.65;;;;;;;5.52;69.45;97012.72;4999608;28;20220;-78
2021/12/06 11:21:31;;;;;;;4.97;2.60;;;;;;;5.92;68.46;97021.81;4973875;28;20182;-78
2021/12/06 11:24:17;;;;;;;5.18;3.55;;;;;;;6.16;67.42;97031.25;4981963;28;20255;-78
2021/12/06 11:26:42;;;;;;;7.35;3.90;;;;;;;6.50;66.54;97026.41;4983884;28;20395;-78
2021/12/06 11:29:18;;;;;;;8.48;3.92;;;;;;;6.39;67.06;97024.56;4984129;28;20183;-78
2021/12/06 11:31:50;;;;;;;6.03;3.30;;;;;;;6.33;67.27;97020.28;4990030;28;20258;-77
2021/12/06 11:34:16;;;;;;;6.97;3.38;;;;;;;6.47;67.05;97026.84;5017545;28;20241;-78
2021/12/06 11:36:42;;;;;;;4.40;3.20;;;;;;;6.54;66.94;97037.88;5002079;28;20197;-78
2021/12/06 11:39:19;;;;;;;5.22;3.80;;;;;;;6.36;66.50;97030.22;5004758;28;20241;-78
2021/12/06 11:41:48;;;;;;;5.25;2.65;;;;;;;6.35;66.21;97031.19;5005367;28;20189;-78
2021/12/06 11:44:32;;;;;;;6.50;3.42;;;;;;;6.21;66.23;97017.66;5005684;28;20188;-78
2021/12/06 11:47:13;;;;;;;5.85;3.33;;;;;;;6.19;66.21;97030.03;4987387;28;20197;-78
2021/12/06 11:49:46;;;;;;;6.32;3.85;;;;;;;6.41;65.56;97017.41;4976101;28;20280;-78
2021/12/06 11:52:16;;;;;;;8.80;4.78;;;;;;;6.34;66.12;97021.84;4997777;28;20291;-78
2021/12/06 11:55:01;;;;;;;7.65;4.32;;;;;;;6.28;66.79;97027.94;4997525;28;20311;-78
2021/12/06 11:57:29;;;;;;;9.95;4.43;;;;;;;6.38;66.30;97031.53;4986666;28;20195;-78
2021/12/06 12:00:06;;;;;;;6.80;4.10;;;;;;;6.37;66.28;97029.19;4976216;28;20197;-78